sensor_id;sensor_type;location;lat;lon;timestamp;pressure;altitude;pressure_sealevel;temperature;humidity
9474;BME280;8865;47.636;7.692;2023-03-13T00:01:32;98034.97;;;8.41;100.00
9474;BME280;8865;47.636;7.692;2023-03-13T00:04:00;98036.75;;;8.41;100.00
9474;BME280;8865;47.636;7.692;2023-03-13T00:06:29;98024.53;;;8.41;100.00
9474;BME280;8865;47.636;7.692;2023-03-13T00:08:57;98026.94;;;8.45;100.00
9474;BME280;8865;47.636;7.692;2023-03-13T00:11:25;98031.06;;;8.47;100.00
9474;BME280;8865;47.636;7.692;2023-03-13T00:13:55;98018.75;;;8.49;100.00
9474;BME280;8865;47.636;7.692;2023-03-13T00:16:22;98027.63;;;8.47;100.00
9474;BME280;8865;47.636;7.692;2023-03-13T00:18:51;98018.75;;;8.49;100.00
9474;BME280;8865;47.636;7.692;2023-03-13T00:21:19;98025.03;;;8.47;100.00
9474;BME280;8865;47.636;7.692;2023-03-13T00:23:48;98018.34;;;8.43;100.00
9474;BME280;8865;47.636;7.692;2023-03-13T00:26:16;98011.47;;;8.41;100.00
9474;BME280;8865;47.636;7.692;2023-03-13T00:28:43;98009.72;;;8.42;100.00
9474;BME280;8865;47.636;7.692;2023-03-13T00:31:19;98016.94;;;8.50;100.00
9474;BME280;8865;47.636;7.692;2023-03-13T00:33:47;98004.97;;;8.47;100.00
9474;BME280;8865;47.636;7.692;2023-03-13T00:36:19;98017.75;;;8.50;100.00
9474;BME280;8865;47.636;7.692;2023-03-13T00:38:45;97999.88;;;8.46;100.00
9474;BME280;8865;47.636;7.692;2023-03-13T00:41:16;98000.94;;;8.43;100.00
9474;BME280;8865;47.636;7.692;2023-03-13T00:43:44;97994.31;;;8.39;100.00
9474;BME280;8865;47.636;7.692;2023-03-13T00:46:11;98005.69;;;8.38;100.00
9474;BME280;8865;47.636;7.692;2023-03-13T00:48:37;98005.94;;;8.35;100.00
9474;BME280;8865;47.636;7.692;2023-03-13T00:51:04;98000.94;;;8.43;100.00
9474;BME280;8865;47.636;7.692;2023-03-13T00:53:31;98001.88;;;8.42;100.00
9474;BME280;8865;47.636;7.692;2023-03-13T00:55:59;97992.50;;;8.39;100.00
9474;BME280;8865;47.636;7.692;2023-03-13T00:58:27;97996.91;;;8.39;100.00
9474;BME280;8865;47.636;7.692;2023-03-13T01:00:54;97998.31;;;8.43;100.00
9474;BME280;8865;47.636;7.692;2023-03-13T01:03:21;97985.28;;;8.43;100.00
9474;BME280;8865;47.636;7.692;2023-03-13T01:06:00;97985.63;;;8.38;100.00
9474;BME280;8865;47.636;7.692;2023-03-13T01:08:27;97977.66;;;8.40;100.00
9474;BME280;8865;47.636;7.692;2023-03-13T01:11:01;97979.13;;;8.44;100.00
9474;BME280;8865;47.636;7.692;2023-03-13T01:13:29;97978.78;;;8.37;100.00
9474;BME280;8865;47.636;7.692;2023-03-13T01:16:08;97980.91;;;8.44;100.00
9474;BME280;8865;47.636;7.692;2023-03-13T01:18:36;97977.22;;;8.46;100.00
9474;BME280;8865;47.636;7.692;2023-03-13T01:21:03;97970.34;;;8.45;100.00
9474;BME280;8865;47.636;7.692;2023-03-13T01:23:29;97965.81;;;8.47;100.00
9474;BME280;8865;47.636;7.692;2023-03-13T01:25:56;97955.97;;;8.51;100.00
9474;BME280;8865;47.636;7.692;2023-03-13T01:28:23;97961.88;;;8.53;100.00
9474;BME280;8865;47.636;7.692;2023-03-13T01:30:50;97953.91;;;8.54;100.00
9474;BME280;8865;47.636;7.692;2023-03-13T01:33:16;97958.19;;;8.55;100.00
9474;BME280;8865;47.636;7.692;2023-03-13T01:35:43;97950.50;;;8.54;100.00
9474;BME280;8865;47.636;7.692;2023-03-13T01:38:09;97944.56;;;8.52;100.00
9474;BME280;8865;47.636;7.692;2023-03-13T01:40:43;97953.38;;;8.51;100.00
9474;BME280;8865;47.636;7.692;2023-03-13T01:43:23;97950.03;;;8.49;100.00
9474;BME280;8865;47.636;7.692;2023-03-13T01:46:28;97945.53;;;8.51;100.00
9474;BME280;8865;47.636;7.692;2023-03-13T01:51:36;97944.31;;;8.55;100.00
9474;BME280;8865;47.636;7.692;2023-03-13T01:56:40;97952.00;;;8.56;100.00
9474;BME280;8865;47.636;7.692;2023-03-13T01:59:10;97950.00;;;8.60;100.00
9474;BME280;8865;47.636;7.692;2023-03-13T02:01:37;97950.94;;;8.59;100.00
9474;BME280;8865;47.636;7.692;2023-03-13T02:04:03;97940.63;;;8.57;100.00
9474;BME280;8865;47.636;7.692;2023-03-13T02:06:32;97927.81;;;8.54;100.00
9474;BME280;8865;47.636;7.692;2023-03-13T02:09:03;97920.81;;;8.55;100.00
9474;BME280;8865;47.636;7.692;2023-03-13T02:11:47;97927.31;;;8.61;100.00
9474;BME280;8865;47.636;7.692;2023-03-13T02:14:15;97914.50;;;8.57;100.00
9474;BME280;8865;47.636;7.692;2023-03-13T02:16:42;97918.31;;;8.53;100.00
9474;BME280;8865;47.636;7.692;2023-03-13T02:20:02;97921.44;;;8.47;100.00
9474;BME280;8865;47.636;7.692;2023-03-13T02:22:22;97922.59;;;8.54;100.00
9474;BME280;8865;47.636;7.692;2023-03-13T02:28:04;97920.69;;;8.56;100.00
9474;BME280;8865;47.636;7.692;2023-03-13T02:30:32;97901.47;;;8.57;100.00
9474;BME280;8865;47.636;7.692;2023-03-13T02:32:59;97892.94;;;8.55;100.00
9474;BME280;8865;47.636;7.692;2023-03-13T02:35:26;97888.72;;;8.64;100.00
9474;BME280;8865;47.636;7.692;2023-03-13T02:37:56;97880.06;;;8.64;100.00
9474;BME280;8865;47.636;7.692;2023-03-13T02:40:27;97878.66;;;8.60;100.00
9474;BME280;8865;47.636;7.692;2023-03-13T02:42:55;97884.25;;;8.55;100.00
9474;BME280;8865;47.636;7.692;2023-03-13T02:45:23;97882.38;;;8.57;100.00
9474;BME280;8865;47.636;7.692;2023-03-13T02:47:49;97886.06;;;8.54;100.00
9474;BME280;8865;47.636;7.692;2023-03-13T02:50:15;97878.78;;;8.58;100.00
9474;BME280;8865;47.636;7.692;2023-03-13T02:52:44;97871.69;;;8.60;100.00
9474;BME280;8865;47.636;7.692;2023-03-13T02:55:17;97870.44;;;8.64;100.00
9474;BME280;8865;47.636;7.692;2023-03-13T02:57:47;97871.28;;;8.65;100.00
9474;BME280;8865;47.636;7.692;2023-03-13T03:00:14;97867.13;;;8.62;100.00
9474;BME280;8865;47.636;7.692;2023-03-13T03:02:42;97858.22;;;8.65;100.00
9474;BME280;8865;47.636;7.692;2023-03-13T03:05:09;97867.13;;;8.62;100.00
9474;BME280;8865;47.636;7.692;2023-03-13T03:07:36;97878.16;;;8.66;100.00
9474;BME280;8865;47.636;7.692;2023-03-13T03:10:02;97873.63;;;8.68;100.00
9474;BME280;8865;47.636;7.692;2023-03-13T03:12:29;97876.00;;;8.71;100.00
9474;BME280;8865;47.636;7.692;2023-03-13T03:14:55;97876.53;;;8.74;100.00
9474;BME280;8865;47.636;7.692;2023-03-13T03:17:20;97876.69;;;8.73;100.00
9474;BME280;8865;47.636;7.692;2023-03-13T03:19:47;97883.81;;;8.71;100.00
9474;BME280;8865;47.636;7.692;2023-03-13T03:22:13;97881.75;;;8.74;100.00
9474;BME280;8865;47.636;7.692;2023-03-13T03:24:38;97883.09;;;8.69;100.00
9474;BME280;8865;47.636;7.692;2023-03-13T03:27:04;97884.50;;;8.73;100.00
9474;BME280;8865;47.636;7.692;2023-03-13T03:29:30;97887.13;;;8.73;100.00
9474;BME280;8865;47.636;7.692;2023-03-13T03:31:56;97882.59;;;8.75;100.00
9474;BME280;8865;47.636;7.692;2023-03-13T03:34:23;97879.72;;;8.78;100.00
9474;BME280;8865;47.636;7.692;2023-03-13T03:36:48;97882.59;;;8.75;100.00
9474;BME280;8865;47.636;7.692;2023-03-13T03:39:15;97876.00;;;8.71;100.00
9474;BME280;8865;47.636;7.692;2023-03-13T03:41:41;97876.53;;;8.74;100.00
9474;BME280;8865;47.636;7.692;2023-03-13T03:44:07;97872.00;;;8.76;100.00
9474;BME280;8865;47.636;7.692;2023-03-13T03:46:33;97868.59;;;8.76;100.00
9474;BME280;8865;47.636;7.692;2023-03-13T03:48:58;97873.25;;;8.72;100.00
9474;BME280;8865;47.636;7.692;2023-03-13T03:51:24;97873.00;;;8.75;100.00
9474;BME280;8865;47.636;7.692;2023-03-13T03:53:50;97869.09;;;8.70;100.00
9474;BME280;8865;47.636;7.692;2023-03-13T03:56:16;97867.03;;;8.73;100.00
9474;BME280;8865;47.636;7.692;2023-03-13T03:58:42;97861.97;;;8.72;100.00
9474;BME280;8865;47.636;7.692;2023-03-13T04:01:08;97853.88;;;8.75;100.00
9474;BME280;8865;47.636;7.692;2023-03-13T04:03:34;97857.06;;;8.79;100.00
9474;BME280;8865;47.636;7.692;2023-03-13T04:06:00;97853.59;;;8.78;100.00
9474;BME280;8865;47.636;7.692;2023-03-13T04:08:26;97853.34;;;8.81;100.00
9474;BME280;8865;47.636;7.692;2023-03-13T04:10:52;97852.25;;;8.84;100.00
9474;BME280;8865;47.636;7.692;2023-03-13T04:13:18;97853.06;;;8.84;100.00
9474;BME280;8865;47.636;7.692;2023-03-13T04:15:44;97845.50;;;8.81;100.00
9474;BME280;8865;47.636;7.692;2023-03-13T04:18:10;97847.94;;;8.73;100.00
9474;BME280;8865;47.636;7.692;2023-03-13T04:20:36;97847.13;;;8.72;100.00
9474;BME280;8865;47.636;7.692;2023-03-13T04:23:02;97861.97;;;8.72;100.00
9474;BME280;8865;47.636;7.692;2023-03-13T04:25:28;97854.72;;;8.75;100.00
9474;BME280;8865;47.636;7.692;2023-03-13T04:27:54;97854.19;;;8.82;100.00
9474;BME280;8865;47.636;7.692;2023-03-13T04:30:20;97857.63;;;8.82;100.00
9474;BME280;8865;47.636;7.692;2023-03-13T04:32:46;97849.53;;;8.85;100.00
9474;BME280;8865;47.636;7.692;2023-03-13T04:35:12;97854.47;;;8.88;100.00
9474;BME280;8865;47.636;7.692;2023-03-13T04:37:38;97848.31;;;8.89;100.00
9474;BME280;8865;47.636;7.692;2023-03-13T04:40:05;97846.91;;;8.85;100.00
9474;BME280;8865;47.636;7.692;2023-03-13T04:42:31;97858.16;;;8.86;100.00
9474;BME280;8865;47.636;7.692;2023-03-13T04:44:57;97847.44;;;8.79;100.00
9474;BME280;8865;47.636;7.692;2023-03-13T04:47:23;97858.00;;;8.78;100.00
9474;BME280;8865;47.636;7.692;2023-03-13T04:49:49;97842.72;;;8.73;100.00
9474;BME280;8865;47.636;7.692;2023-03-13T04:52:15;97841.25;;;8.80;100.00
9474;BME280;8865;47.636;7.692;2023-03-13T04:54:41;97841.41;;;8.88;100.00
9474;BME280;8865;47.636;7.692;2023-03-13T04:57:07;97835.25;;;8.89;100.00
9474;BME280;8865;47.636;7.692;2023-03-13T04:59:33;97829.56;;;8.84;100.00
9474;BME280;8865;47.636;7.692;2023-03-13T05:01:59;97826.28;;;8.82;100.00
9474;BME280;8865;47.636;7.692;2023-03-13T05:04:25;97828.47;;;8.77;100.00
9474;BME280;8865;47.636;7.692;2023-03-13T05:06:51;97834.50;;;8.78;100.00
9474;BME280;8865;47.636;7.692;2023-03-13T05:09:17;97826.84;;;8.86;100.00
9474;BME280;8865;47.636;7.692;2023-03-13T05:11:43;97828.38;;;8.88;100.00
9474;BME280;8865;47.636;7.692;2023-03-13T05:14:09;97816.69;;;8.92;100.00
9474;BME280;8865;47.636;7.692;2023-03-13T05:16:37;97820.94;;;8.93;100.00
9474;BME280;8865;47.636;7.692;2023-03-13T05:19:03;97823.03;;;9.00;100.00
9474;BME280;8865;47.636;7.692;2023-03-13T05:21:29;97811.75;;;8.99;100.00
9474;BME280;8865;47.636;7.692;2023-03-13T05:23:55;97815.47;;;8.97;100.00
9474;BME280;8865;47.636;7.692;2023-03-13T05:26:22;97809.84;;;9.01;100.00
9474;BME280;8865;47.636;7.692;2023-03-13T05:28:48;97819.88;;;8.96;100.00
9474;BME280;8865;47.636;7.692;2023-03-13T05:31:14;97808.47;;;8.97;100.00
9474;BME280;8865;47.636;7.692;2023-03-13T05:33:40;97805.31;;;9.03;100.00
9474;BME280;8865;47.636;7.692;2023-03-13T05:36:06;97813.16;;;9.03;100.00
9474;BME280;8865;47.636;7.692;2023-03-13T05:38:33;97801.59;;;9.06;100.00
9474;BME280;8865;47.636;7.692;2023-03-13T05:40:59;97800.38;;;9.00;100.00
9474;BME280;8865;47.636;7.692;2023-03-13T05:43:25;97809.28;;;8.98;100.00
9474;BME280;8865;47.636;7.692;2023-03-13T05:45:51;97800.75;;;8.96;100.00
9474;BME280;8865;47.636;7.692;2023-03-13T05:48:17;97800.91;;;8.94;100.00
9474;BME280;8865;47.636;7.692;2023-03-13T05:50:43;97812.28;;;8.93;100.00
9474;BME280;8865;47.636;7.692;2023-03-13T05:53:09;97813.38;;;8.90;100.00
9474;BME280;8865;47.636;7.692;2023-03-13T05:55:35;97813.09;;;8.93;100.00
9474;BME280;8865;47.636;7.692;2023-03-13T05:58:01;97809.28;;;8.98;100.00
9474;BME280;8865;47.636;7.692;2023-03-13T06:00:27;97820.28;;;9.01;100.00
9474;BME280;8865;47.636;7.692;2023-03-13T06:02:53;97820.53;;;8.98;100.00
9474;BME280;8865;47.636;7.692;2023-03-13T06:05:19;97814.94;;;9.03;100.00
9474;BME280;8865;47.636;7.692;2023-03-13T06:07:45;97810.69;;;9.02;100.00
9474;BME280;8865;47.636;7.692;2023-03-13T06:10:11;97796.25;;;9.07;100.00
9474;BME280;8865;47.636;7.692;2023-03-13T06:12:37;97808.63;;;9.15;100.00
9474;BME280;8865;47.636;7.692;2023-03-13T06:15:03;97806.59;;;9.19;100.00
9474;BME280;8865;47.636;7.692;2023-03-13T06:17:32;97796.97;;;9.19;100.00
9474;BME280;8865;47.636;7.692;2023-03-13T06:19:58;97799.16;;;9.24;100.00
9474;BME280;8865;47.636;7.692;2023-03-13T06:22:24;97788.84;;;9.32;100.00
9474;BME280;8865;47.636;7.692;2023-03-13T06:24:49;97782.13;;;9.39;100.00
9474;BME280;8865;47.636;7.692;2023-03-13T06:27:16;97787.38;;;9.49;100.00
9474;BME280;8865;47.636;7.692;2023-03-13T06:29:42;97776.38;;;9.55;100.00
9474;BME280;8865;47.636;7.692;2023-03-13T06:32:08;97767.81;;;9.53;100.00
9474;BME280;8865;47.636;7.692;2023-03-13T06:34:34;97767.00;;;9.62;100.00
9474;BME280;8865;47.636;7.692;2023-03-13T06:37:01;97780.78;;;9.64;100.00
9474;BME280;8865;47.636;7.692;2023-03-13T06:39:26;97773.34;;;9.60;100.00
9474;BME280;8865;47.636;7.692;2023-03-13T06:41:52;97790.69;;;9.71;100.00
9474;BME280;8865;47.636;7.692;2023-03-13T06:44:18;97780.22;;;9.61;100.00
9474;BME280;8865;47.636;7.692;2023-03-13T06:46:44;97780.50;;;9.68;100.00
9474;BME280;8865;47.636;7.692;2023-03-13T06:49:10;97790.53;;;9.82;100.00
9474;BME280;8865;47.636;7.692;2023-03-13T06:51:36;97785.97;;;9.84;100.00
9474;BME280;8865;47.636;7.692;2023-03-13T06:54:02;97792.31;;;9.91;100.00
9474;BME280;8865;47.636;7.692;2023-03-13T06:56:28;97796.97;;;9.97;100.00
9474;BME280;8865;47.636;7.692;2023-03-13T06:58:54;97794.22;;;9.99;100.00
9474;BME280;8865;47.636;7.692;2023-03-13T07:01:20;97800.28;;;10.09;100.00
9474;BME280;8865;47.636;7.692;2023-03-13T07:03:47;97803.97;;;10.16;100.00
9474;BME280;8865;47.636;7.692;2023-03-13T07:06:14;97797.88;;;10.26;100.00
9474;BME280;8865;47.636;7.692;2023-03-13T07:08:40;97801.34;;;10.36;100.00
9474;BME280;8865;47.636;7.692;2023-03-13T07:11:09;97794.31;;;10.27;100.00
9474;BME280;8865;47.636;7.692;2023-03-13T07:13:36;97790.72;;;10.38;100.00
9474;BME280;8865;47.636;7.692;2023-03-13T07:16:04;97780.94;;;10.40;100.00
9474;BME280;8865;47.636;7.692;2023-03-13T07:18:31;97780.50;;;10.44;100.00
9474;BME280;8865;47.636;7.692;2023-03-13T07:20:59;97784.78;;;10.45;100.00
9474;BME280;8865;47.636;7.692;2023-03-13T07:23:27;97780.34;;;10.46;100.00
9474;BME280;8865;47.636;7.692;2023-03-13T07:25:58;97779.09;;;10.50;100.00
9474;BME280;8865;47.636;7.692;2023-03-13T07:28:26;97768.63;;;10.50;100.00
9474;BME280;8865;47.636;7.692;2023-03-13T07:30:52;97774.69;;;10.50;100.00
9474;BME280;8865;47.636;7.692;2023-03-13T07:33:18;97761.53;;;10.70;100.00
9474;BME280;8865;47.636;7.692;2023-03-13T07:35:49;97754.16;;;10.83;100.00
9474;BME280;8865;47.636;7.692;2023-03-13T07:38:16;97750.22;;;10.97;100.00
9474;BME280;8865;47.636;7.692;2023-03-13T07:40:54;97744.47;;;11.12;100.00
9474;BME280;8865;47.636;7.692;2023-03-13T07:43:21;97732.41;;;11.19;100.00
9474;BME280;8865;47.636;7.692;2023-03-13T07:45:55;97728.91;;;11.28;100.00
9474;BME280;8865;47.636;7.692;2023-03-13T07:48:22;97722.44;;;11.40;100.00
9474;BME280;8865;47.636;7.692;2023-03-13T07:50:49;97723.06;;;11.52;100.00
9474;BME280;8865;47.636;7.692;2023-03-13T07:53:15;97724.75;;;11.61;100.00
9474;BME280;8865;47.636;7.692;2023-03-13T07:58:18;97717.06;;;11.86;100.00
9474;BME280;8865;47.636;7.692;2023-03-13T08:00:44;97711.75;;;11.96;100.00
9474;BME280;8865;47.636;7.692;2023-03-13T08:03:10;97701.81;;;12.08;100.00
9474;BME280;8865;47.636;7.692;2023-03-13T08:05:36;97696.75;;;12.14;100.00
9474;BME280;8865;47.636;7.692;2023-03-13T08:08:02;97685.19;;;11.99;100.00
9474;BME280;8865;47.636;7.692;2023-03-13T08:10:29;97679.00;;;12.08;100.00
9474;BME280;8865;47.636;7.692;2023-03-13T08:12:56;97676.81;;;12.30;100.00
9474;BME280;8865;47.636;7.692;2023-03-13T08:15:21;97676.59;;;12.58;100.00
9474;BME280;8865;47.636;7.692;2023-03-13T08:17:54;97677.19;;;12.94;100.00
9474;BME280;8865;47.636;7.692;2023-03-13T08:20:21;97659.47;;;13.21;100.00
9474;BME280;8865;47.636;7.692;2023-03-13T08:22:47;97664.44;;;13.49;100.00
9474;BME280;8865;47.636;7.692;2023-03-13T08:25:15;97668.19;;;13.71;100.00
9474;BME280;8865;47.636;7.692;2023-03-13T08:27:41;97653.81;;;13.98;100.00
9474;BME280;8865;47.636;7.692;2023-03-13T08:30:08;97647.97;;;14.27;100.00
9474;BME280;8865;47.636;7.692;2023-03-13T08:32:35;97641.09;;;14.58;100.00
9474;BME280;8865;47.636;7.692;2023-03-13T08:35:02;97639.63;;;14.87;100.00
9474;BME280;8865;47.636;7.692;2023-03-13T08:37:28;97623.75;;;15.18;100.00
9474;BME280;8865;47.636;7.692;2023-03-13T08:39:54;97620.19;;;15.49;100.00
9474;BME280;8865;47.636;7.692;2023-03-13T08:42:22;97619.06;;;15.81;100.00
9474;BME280;8865;47.636;7.692;2023-03-13T08:44:48;97604.03;;;16.12;100.00
9474;BME280;8865;47.636;7.692;2023-03-13T08:47:14;97610.84;;;16.21;100.00
9474;BME280;8865;47.636;7.692;2023-03-13T08:49:40;97603.47;;;16.31;100.00
9474;BME280;8865;47.636;7.692;2023-03-13T08:52:06;97604.63;;;16.43;100.00
9474;BME280;8865;47.636;7.692;2023-03-13T08:54:32;97598.16;;;16.68;100.00
9474;BME280;8865;47.636;7.692;2023-03-13T08:56:58;97600.13;;;16.95;100.00
9474;BME280;8865;47.636;7.692;2023-03-13T08:59:26;97592.63;;;17.27;100.00
9474;BME280;8865;47.636;7.692;2023-03-13T09:01:52;97599.53;;;17.50;100.00
9474;BME280;8865;47.636;7.692;2023-03-13T09:04:18;97589.47;;;17.67;100.00
9474;BME280;8865;47.636;7.692;2023-03-13T09:06:45;97593.03;;;17.88;100.00
9474;BME280;8865;47.636;7.692;2023-03-13T09:09:11;97580.38;;;18.18;100.00
9474;BME280;8865;47.636;7.692;2023-03-13T09:11:38;97562.41;;;18.62;100.00
9474;BME280;8865;47.636;7.692;2023-03-13T09:14:05;97559.41;;;19.12;100.00
9474;BME280;8865;47.636;7.692;2023-03-13T09:16:33;97559.13;;;19.73;100.00
9474;BME280;8865;47.636;7.692;2023-03-13T09:18:59;97554.50;;;20.21;97.84
9474;BME280;8865;47.636;7.692;2023-03-13T09:21:31;97554.06;;;20.62;93.96
9474;BME280;8865;47.636;7.692;2023-03-13T09:23:57;97555.91;;;21.00;90.24
9474;BME280;8865;47.636;7.692;2023-03-13T09:26:24;97541.34;;;21.28;84.04
9474;BME280;8865;47.636;7.692;2023-03-13T09:28:51;97534.91;;;21.36;80.65
9474;BME280;8865;47.636;7.692;2023-03-13T09:31:26;97537.84;;;22.08;79.56
9474;BME280;8865;47.636;7.692;2023-03-13T09:33:53;97530.31;;;23.79;68.66
9474;BME280;8865;47.636;7.692;2023-03-13T09:36:19;97529.34;;;25.29;60.76
9474;BME280;8865;47.636;7.692;2023-03-13T09:38:46;97523.38;;;26.55;52.70
9474;BME280;8865;47.636;7.692;2023-03-13T09:41:22;97517.03;;;27.74;47.04
9474;BME280;8865;47.636;7.692;2023-03-13T09:46:24;97505.44;;;27.73;44.78
9474;BME280;8865;47.636;7.692;2023-03-13T09:48:57;97500.34;;;27.29;44.42
9474;BME280;8865;47.636;7.692;2023-03-13T09:51:36;97499.09;;;27.04;45.32
9474;BME280;8865;47.636;7.692;2023-03-13T09:54:24;97495.16;;;28.18;43.23
9474;BME280;8865;47.636;7.692;2023-03-13T09:57:00;97484.66;;;29.55;40.13
9474;BME280;8865;47.636;7.692;2023-03-13T10:01:59;97467.88;;;29.84;38.04
9474;BME280;8865;47.636;7.692;2023-03-13T10:04:40;97469.13;;;29.21;37.48
9474;BME280;8865;47.636;7.692;2023-03-13T10:07:11;97468.06;;;28.81;38.51
9474;BME280;8865;47.636;7.692;2023-03-13T10:09:37;97464.53;;;28.76;38.57
9474;BME280;8865;47.636;7.692;2023-03-13T10:12:18;97458.16;;;27.88;40.09
9474;BME280;8865;47.636;7.692;2023-03-13T10:17:36;97460.81;;;26.27;43.87
9474;BME280;8865;47.636;7.692;2023-03-13T10:20:16;97438.47;;;26.49;43.69
9474;BME280;8865;47.636;7.692;2023-03-13T10:22:46;97421.94;;;28.42;41.75
9474;BME280;8865;47.636;7.692;2023-03-13T10:25:33;97416.06;;;29.67;38.97
9474;BME280;8865;47.636;7.692;2023-03-13T10:28:00;97403.69;;;31.81;34.67
9474;BME280;8865;47.636;7.692;2023-03-13T10:30:34;97402.31;;;33.35;31.20
9474;BME280;8865;47.636;7.692;2023-03-13T10:35:38;97375.97;;;34.67;28.92
9474;BME280;8865;47.636;7.692;2023-03-13T10:40:33;97356.59;;;35.49;26.54
9474;BME280;8865;47.636;7.692;2023-03-13T10:43:18;97362.31;;;34.59;27.85
9474;BME280;8865;47.636;7.692;2023-03-13T10:45:44;97354.78;;;34.10;28.95
9474;BME280;8865;47.636;7.692;2023-03-13T10:50:36;97333.94;;;32.77;29.82
9474;BME280;8865;47.636;7.692;2023-03-13T10:55:51;97330.31;;;33.09;30.07
9474;BME280;8865;47.636;7.692;2023-03-13T10:58:25;97330.13;;;34.52;28.82
9474;BME280;8865;47.636;7.692;2023-03-13T11:01:13;97319.47;;;36.06;27.15
9474;BME280;8865;47.636;7.692;2023-03-13T11:03:42;97316.16;;;37.63;24.67
9474;BME280;8865;47.636;7.692;2023-03-13T11:06:24;97303.53;;;37.50;24.05
9474;BME280;8865;47.636;7.692;2023-03-13T11:09:09;97297.63;;;38.69;22.68
9474;BME280;8865;47.636;7.692;2023-03-13T11:11:44;97287.81;;;39.05;21.52
9474;BME280;8865;47.636;7.692;2023-03-13T11:14:19;97283.50;;;39.70;21.75
9474;BME280;8865;47.636;7.692;2023-03-13T11:16:53;97277.19;;;39.97;22.40
9474;BME280;8865;47.636;7.692;2023-03-13T11:22:16;97261.81;;;40.37;20.52
9474;BME280;8865;47.636;7.692;2023-03-13T11:27:35;97246.03;;;40.98;20.21
9474;BME280;8865;47.636;7.692;2023-03-13T11:32:41;97234.13;;;42.27;18.98
9474;BME280;8865;47.636;7.692;2023-03-13T11:37:54;97212.09;;;43.04;18.35
9474;BME280;8865;47.636;7.692;2023-03-13T11:41:05;97214.34;;;42.44;18.12
9474;BME280;8865;47.636;7.692;2023-03-13T11:44:00;97203.81;;;42.73;17.78
9474;BME280;8865;47.636;7.692;2023-03-13T11:46:32;97184.81;;;42.68;17.83
9474;BME280;8865;47.636;7.692;2023-03-13T11:54:19;97186.56;;;41.84;17.76
9474;BME280;8865;47.636;7.692;2023-03-13T11:57:04;97169.72;;;39.92;19.90
9474;BME280;8865;47.636;7.692;2023-03-13T12:04:42;97146.84;;;38.13;21.21
9474;BME280;8865;47.636;7.692;2023-03-13T12:07:20;97134.97;;;38.83;21.17
9474;BME280;8865;47.636;7.692;2023-03-13T12:09:56;97125.94;;;39.79;20.12
9474;BME280;8865;47.636;7.692;2023-03-13T12:15:43;97104.25;;;39.30;20.42
9474;BME280;8865;47.636;7.692;2023-03-13T12:20:59;97084.88;;;41.02;18.58
9474;BME280;8865;47.636;7.692;2023-03-13T12:26:20;97066.34;;;44.15;16.48
9474;BME280;8865;47.636;7.692;2023-03-13T12:31:38;97041.97;;;43.76;16.67
9474;BME280;8865;47.636;7.692;2023-03-13T12:36:50;97036.84;;;45.10;15.23
9474;BME280;8865;47.636;7.692;2023-03-13T12:44:38;97003.06;;;43.81;16.21
9474;BME280;8865;47.636;7.692;2023-03-13T12:47:11;96986.25;;;43.11;15.93
9474;BME280;8865;47.636;7.692;2023-03-13T12:58:41;96958.81;;;38.75;19.63
9474;BME280;8865;47.636;7.692;2023-03-13T13:01:26;96952.75;;;38.82;20.29
9474;BME280;8865;47.636;7.692;2023-03-13T13:04:04;96946.53;;;39.61;18.12
9474;BME280;8865;47.636;7.692;2023-03-13T13:07:06;96935.44;;;38.93;19.04
9474;BME280;8865;47.636;7.692;2023-03-13T13:12:39;96916.63;;;38.07;21.35
9474;BME280;8865;47.636;7.692;2023-03-13T13:15:28;96909.78;;;39.62;19.47
9474;BME280;8865;47.636;7.692;2023-03-13T13:23:27;96875.41;;;39.84;18.96
9474;BME280;8865;47.636;7.692;2023-03-13T13:28:57;96878.78;;;40.13;18.87
9474;BME280;8865;47.636;7.692;2023-03-13T13:36:55;96859.34;;;41.07;18.02
9474;BME280;8865;47.636;7.692;2023-03-13T13:42:00;96854.47;;;39.08;19.03
9474;BME280;8865;47.636;7.692;2023-03-13T13:44:27;96843.44;;;38.89;19.11
9474;BME280;8865;47.636;7.692;2023-03-13T13:46:55;96848.94;;;38.45;19.96
9474;BME280;8865;47.636;7.692;2023-03-13T13:49:23;96831.63;;;40.27;18.10
9474;BME280;8865;47.636;7.692;2023-03-13T13:54:35;96826.38;;;41.30;17.10
9474;BME280;8865;47.636;7.692;2023-03-13T13:57:24;96819.94;;;40.49;17.85
9474;BME280;8865;47.636;7.692;2023-03-13T13:59:53;96808.25;;;41.02;17.91
9474;BME280;8865;47.636;7.692;2023-03-13T14:02:35;96801.38;;;41.39;16.93
9474;BME280;8865;47.636;7.692;2023-03-13T14:05:07;96805.88;;;41.24;16.94
9474;BME280;8865;47.636;7.692;2023-03-13T14:13:00;96810.00;;;35.37;20.86
9474;BME280;8865;47.636;7.692;2023-03-13T14:15:31;96774.19;;;34.97;20.72
9474;BME280;8865;47.636;7.692;2023-03-13T14:18:08;96787.69;;;33.41;22.85
9474;BME280;8865;47.636;7.692;2023-03-13T14:20:38;96765.44;;;36.39;21.29
9474;BME280;8865;47.636;7.692;2023-03-13T14:23:08;96767.97;;;37.06;19.09
9474;BME280;8865;47.636;7.692;2023-03-13T14:25:46;96771.09;;;32.53;22.64
9474;BME280;8865;47.636;7.692;2023-03-13T14:28:19;96763.00;;;31.63;23.56
9474;BME280;8865;47.636;7.692;2023-03-13T14:30:48;96756.75;;;32.62;23.15
9474;BME280;8865;47.636;7.692;2023-03-13T14:33:15;96761.94;;;30.53;24.92
9474;BME280;8865;47.636;7.692;2023-03-13T14:35:41;96764.22;;;29.61;27.49
9474;BME280;8865;47.636;7.692;2023-03-13T14:38:25;96760.09;;;30.34;26.48
9474;BME280;8865;47.636;7.692;2023-03-13T14:40:52;96760.34;;;29.67;27.60
9474;BME280;8865;47.636;7.692;2023-03-13T14:43:32;96741.81;;;28.25;28.86
9474;BME280;8865;47.636;7.692;2023-03-13T14:45:59;96747.28;;;29.17;29.86
9474;BME280;8865;47.636;7.692;2023-03-13T14:48:29;96724.88;;;29.16;29.46
9474;BME280;8865;47.636;7.692;2023-03-13T14:51:08;96734.66;;;27.76;28.07
9474;BME280;8865;47.636;7.692;2023-03-13T14:53:35;96721.03;;;27.17;28.94
9474;BME280;8865;47.636;7.692;2023-03-13T14:56:16;96719.06;;;26.78;29.52
9474;BME280;8865;47.636;7.692;2023-03-13T14:58:46;96719.16;;;26.52;28.82
9474;BME280;8865;47.636;7.692;2023-03-13T15:01:25;96713.59;;;26.13;29.03
9474;BME280;8865;47.636;7.692;2023-03-13T15:03:52;96699.63;;;25.90;29.81
9474;BME280;8865;47.636;7.692;2023-03-13T15:06:21;96703.13;;;25.70;28.89
9474;BME280;8865;47.636;7.692;2023-03-13T15:09:06;96688.34;;;25.83;28.81
9474;BME280;8865;47.636;7.692;2023-03-13T15:11:38;96697.75;;;25.34;29.44
9474;BME280;8865;47.636;7.692;2023-03-13T15:14:35;96694.97;;;25.08;29.49
9474;BME280;8865;47.636;7.692;2023-03-13T15:17:02;96697.88;;;24.91;29.71
9474;BME280;8865;47.636;7.692;2023-03-13T15:19:30;96671.06;;;24.81;30.19